Wetterdaten: Woche 13.06.05 - 19.06.05 (KW24)
Datum Zeit Temperatur Luftfeuchte Luftdruck Niederschlag Wind Richtung Sonne Solar Taupunkt Windchill
13.06.2005 00:00 13.5 C 88 % 1008.0 hPa 0.0 l/m 1.3 km/h (1 Bft) O-SO 0.00 h 0 W/m 11.5 C 13.5 C
13.06.2005 01:00 13.4 C 92 % 1007.8 hPa 2.9 l/m 2.5 km/h (1 Bft) O-SO 0.00 h 0 W/m 12.1 C 13.4 C
13.06.2005 02:00 13.2 C 99 % 1007.5 hPa 0.0 l/m 4.2 km/h (1 Bft) O-SO 0.00 h 0 W/m 13.1 C 13.2 C
13.06.2005 03:00 13.0 C 100 % 1007.4 hPa 0.0 l/m 2.2 km/h (1 Bft) O-SO 0.00 h 0 W/m 13.0 C 13.0 C
13.06.2005 04:00 12.9 C 100 % 1007.4 hPa 0.0 l/m 0.4 km/h (0 Bft) O-SO 0.00 h 0 W/m 12.9 C 12.9 C
13.06.2005 05:00 13.5 C 100 % 1007.3 hPa 0.0 l/m 0.0 km/h (0 Bft) N 0.00 h 6 W/m 13.5 C 13.5 C
13.06.2005 06:00 13.9 C 100 % 1007.3 hPa 1.0 l/m 0.5 km/h (0 Bft) O-SO 0.00 h 28 W/m 13.9 C 13.9 C
13.06.2005 07:00 14.1 C 100 % 1007.3 hPa 1.0 l/m 1.4 km/h (1 Bft) N-NO 0.00 h 40 W/m 14.1 C 14.1 C
13.06.2005 08:00 15.1 C 99 % 1007.1 hPa 0.0 l/m 0.9 km/h (0 Bft) O-SO 0.68 h 298 W/m 14.9 C 15.1 C
13.06.2005 09:00 16.2 C 93 % 1007.4 hPa 0.0 l/m 0.6 km/h (0 Bft) W 0.87 h 490 W/m 15.2 C 16.2 C
13.06.2005 10:00 16.9 C 82 % 1008.3 hPa 0.6 l/m 9.9 km/h (2 Bft) W-NW 0.28 h 265 W/m 13.7 C 16.9 C
13.06.2005 11:00 15.5 C 92 % 1009.8 hPa 1.6 l/m 5.8 km/h (1 Bft) W-NW 0.00 h 105 W/m 14.2 C 15.5 C
13.06.2005 12:00 16.3 C 95 % 1010.1 hPa 0.3 l/m 0.8 km/h (0 Bft) NO 0.17 h 341 W/m 15.5 C 16.3 C
13.06.2005 13:00 17.7 C 88 % 1008.9 hPa 0.0 l/m 1.1 km/h (1 Bft) W 0.55 h 527 W/m 15.6 C 17.7 C
13.06.2005 14:00 20.7 C 76 % 1008.5 hPa 0.0 l/m 6.9 km/h (2 Bft) O-SO 0.93 h 831 W/m 16.3 C 20.7 C
13.06.2005 15:00 23.3 C 62 % 1007.2 hPa 0.0 l/m 8.7 km/h (2 Bft) SO 0.97 h 765 W/m 15.6 C 23.3 C
13.06.2005 16:00 24.8 C 53 % 1006.9 hPa 0.0 l/m 8.2 km/h (2 Bft) W-NW 0.93 h 634 W/m 14.4 C 24.8 C
13.06.2005 17:00 25.1 C 48 % 1006.1 hPa 0.0 l/m 7.5 km/h (2 Bft) S-SW 0.83 h 514 W/m 13.4 C 25.1 C
13.06.2005 18:00 23.6 C 55 % 1007.1 hPa 0.0 l/m 7.1 km/h (2 Bft) W-NW 0.25 h 189 W/m 14.1 C 23.6 C
13.06.2005 19:00 21.1 C 71 % 1007.2 hPa 0.3 l/m 4.3 km/h (1 Bft) NW 0.00 h 34 W/m 15.4 C 21.1 C
13.06.2005 20:00 18.4 C 90 % 1008.3 hPa 0.6 l/m 1.6 km/h (1 Bft) SO 0.00 h 4 W/m 16.7 C 18.4 C
13.06.2005 21:00 17.1 C 95 % 1010.1 hPa 0.0 l/m 0.2 km/h (0 Bft) SO 0.00 h 6 W/m 16.3 C 17.1 C
13.06.2005 22:00 16.0 C 91 % 1011.2 hPa 0.0 l/m 2.1 km/h (1 Bft) O-SO 0.00 h 0 W/m 14.5 C 16.0 C
13.06.2005 23:00 15.5 C 96 % 1011.2 hPa 0.3 l/m 0.0 km/h (0 Bft) N 0.00 h 0 W/m 14.8 C 15.5 C
14.06.2005 00:00 15.1 C 97 % 1010.9 hPa 0.0 l/m 0.0 km/h (0 Bft) N 0.00 h 0 W/m 14.6 C 15.1 C
14.06.2005 01:00 14.5 C 100 % 1010.3 hPa 0.0 l/m 0.3 km/h (0 Bft) O-SO 0.00 h 0 W/m 14.5 C 14.5 C
14.06.2005 02:00 14.2 C 100 % 1010.4 hPa 0.0 l/m 0.0 km/h (0 Bft) N 0.00 h 0 W/m 14.2 C 14.2 C
14.06.2005 03:00 14.1 C 100 % 1010.4 hPa 0.0 l/m 0.9 km/h (0 Bft) O-SO 0.00 h 0 W/m 14.1 C 14.1 C
14.06.2005 04:00 14.2 C 100 % 1010.4 hPa 0.0 l/m 0.8 km/h (0 Bft) O-SO 0.00 h 0 W/m 14.1 C 14.2 C
14.06.2005 05:00 14.3 C 100 % 1010.4 hPa 0.3 l/m 0.1 km/h (0 Bft) N 0.00 h 2 W/m 14.3 C 14.3 C
14.06.2005 06:00 14.7 C 100 % 1010.8 hPa 0.6 l/m 0.0 km/h (0 Bft) N 0.00 h 25 W/m 14.7 C 14.7 C
14.06.2005 07:00 15.2 C 100 % 1010.3 hPa 0.0 l/m 0.7 km/h (0 Bft) O-SO 0.00 h 57 W/m 15.2 C 15.2 C
14.06.2005 08:00 15.4 C 99 % 1011.0 hPa 0.0 l/m 0.3 km/h (0 Bft) O 0.00 h 81 W/m 15.3 C 15.4 C
14.06.2005 09:00 15.8 C 96 % 1011.2 hPa 0.0 l/m 0.6 km/h (0 Bft) W 0.00 h 129 W/m 15.3 C 15.8 C
14.06.2005 10:00 16.4 C 93 % 1011.1 hPa 0.0 l/m 0.6 km/h (0 Bft) W-NW 0.17 h 227 W/m 15.2 C 16.4 C
14.06.2005 11:00 18.0 C 85 % 1010.9 hPa 0.0 l/m 1.3 km/h (1 Bft) O-SO 0.87 h 537 W/m 15.4 C 18.0 C
14.06.2005 12:00 19.1 C 78 % 1010.8 hPa 0.0 l/m 2.7 km/h (1 Bft) O-SO 0.63 h 630 W/m 15.2 C 19.1 C
14.06.2005 13:00 20.1 C 71 % 1010.6 hPa 0.0 l/m 1.7 km/h (1 Bft) W 0.53 h 493 W/m 14.7 C 20.1 C
14.06.2005 14:00 20.4 C 70 % 1010.6 hPa 0.0 l/m 1.8 km/h (1 Bft) O-SO 0.17 h 353 W/m 14.6 C 20.4 C
14.06.2005 15:00 21.0 C 67 % 1010.5 hPa 0.0 l/m 2.6 km/h (1 Bft) W-NW 0.43 h 350 W/m 14.6 C 21.0 C
14.06.2005 16:00 19.7 C 69 % 1010.9 hPa 0.0 l/m 20.3 km/h (4 Bft) W-NW 0.00 h 174 W/m 13.9 C 19.7 C
14.06.2005 17:00 16.9 C 85 % 1012.6 hPa 1.6 l/m 21.0 km/h (4 Bft) W-NW 0.00 h 58 W/m 14.4 C 16.9 C
14.06.2005 18:00 16.1 C 98 % 1013.2 hPa 1.3 l/m 0.7 km/h (0 Bft) W 0.00 h 34 W/m 15.7 C 16.1 C
14.06.2005 19:00 16.2 C 100 % 1013.9 hPa 0.0 l/m 0.2 km/h (0 Bft) O-SO 0.00 h 33 W/m 16.1 C 16.2 C
14.06.2005 20:00 15.9 C 98 % 1014.3 hPa 0.3 l/m 0.9 km/h (0 Bft) SO 0.00 h 15 W/m 15.6 C 15.9 C
14.06.2005 21:00 15.6 C 100 % 1015.1 hPa 0.0 l/m 2.9 km/h (1 Bft) SO 0.00 h 7 W/m 15.5 C 15.6 C
14.06.2005 22:00 15.6 C 100 % 1015.8 hPa 0.0 l/m 0.0 km/h (0 Bft) N 0.00 h 0 W/m 15.6 C 15.6 C
14.06.2005 23:00 15.5 C 100 % 1016.4 hPa 0.6 l/m 1.7 km/h (1 Bft) SO 0.00 h 0 W/m 15.5 C 15.5 C
15.06.2005 00:00 15.4 C 100 % 1016.4 hPa 0.0 l/m 0.8 km/h (0 Bft) SO 0.00 h 0 W/m 15.4 C 15.4 C
15.06.2005 01:00 15.4 C 100 % 1016.7 hPa 2.9 l/m 0.0 km/h (0 Bft) O-SO 0.00 h 0 W/m 15.4 C 15.4 C
15.06.2005 02:00 15.4 C 100 % 1017.5 hPa 0.3 l/m 0.2 km/h (0 Bft) O-SO 0.00 h 0 W/m 15.4 C 15.4 C
15.06.2005 03:00 15.4 C 100 % 1017.5 hPa 0.0 l/m 0.0 km/h (0 Bft) N 0.00 h 0 W/m 15.4 C 15.4 C
15.06.2005 04:00 15.5 C 100 % 1017.5 hPa 0.0 l/m 0.2 km/h (0 Bft) W 0.00 h 0 W/m 15.5 C 15.5 C
15.06.2005 05:00 15.1 C 100 % 1018.6 hPa 0.0 l/m 3.0 km/h (1 Bft) NW 0.13 h 15 W/m 15.1 C 15.1 C
15.06.2005 06:00 15.1 C 98 % 1018.7 hPa 0.0 l/m 0.2 km/h (0 Bft) N-NO 0.97 h 84 W/m 14.7 C 15.1 C
15.06.2005 07:00 15.4 C 95 % 1019.6 hPa 0.0 l/m 0.8 km/h (0 Bft) W 1.00 h 207 W/m 14.5 C 15.4 C
15.06.2005 08:00 16.1 C 88 % 1019.5 hPa 0.0 l/m 4.7 km/h (1 Bft) W-NW 0.97 h 403 W/m 14.1 C 16.1 C
15.06.2005 09:00 16.9 C 83 % 1020.0 hPa 0.0 l/m 2.8 km/h (1 Bft) W 0.50 h 386 W/m 14.0 C 16.9 C
15.06.2005 10:00 17.8 C 78 % 1019.7 hPa 0.0 l/m 0.8 km/h (0 Bft) W-NW 0.37 h 455 W/m 13.8 C 17.8 C
15.06.2005 11:00 19.7 C 67 % 1019.0 hPa 0.0 l/m 3.3 km/h (1 Bft) O-SO 1.00 h 823 W/m 13.4 C 19.7 C
15.06.2005 12:00 21.1 C 57 % 1018.8 hPa 0.0 l/m 2.2 km/h (1 Bft) O-SO 1.00 h 882 W/m 12.3 C 21.1 C
15.06.2005 13:00 22.2 C 47 % 1018.7 hPa 0.0 l/m 1.8 km/h (1 Bft) O-SO 1.00 h 885 W/m 10.5 C 22.2 C
15.06.2005 14:00 23.7 C 46 % 1018.4 hPa 0.0 l/m 8.7 km/h (2 Bft) O-SO 0.97 h 851 W/m 11.4 C 23.7 C
15.06.2005 15:00 24.5 C 46 % 1017.5 hPa 0.0 l/m 2.8 km/h (1 Bft) W-NW 0.83 h 724 W/m 11.9 C 24.5 C
15.06.2005 16:00 24.6 C 45 % 1017.3 hPa 0.0 l/m 2.9 km/h (1 Bft) W 0.57 h 545 W/m 11.7 C 24.6 C
15.06.2005 17:00 24.6 C 44 % 1017.3 hPa 0.0 l/m 4.0 km/h (1 Bft) W-NW 0.68 h 354 W/m 11.6 C 24.6 C
15.06.2005 18:00 25.2 C 36 % 1017.3 hPa 0.0 l/m 12.5 km/h (3 Bft) W-NW 0.93 h 407 W/m 9.1 C 25.2 C
15.06.2005 19:00 23.5 C 45 % 1017.6 hPa 0.0 l/m 5.0 km/h (1 Bft) W-NW 0.25 h 134 W/m 10.8 C 23.5 C
15.06.2005 20:00 21.5 C 55 % 1018.8 hPa 0.0 l/m 1.8 km/h (1 Bft) W-NW 0.00 h 44 W/m 12.0 C 21.5 C
15.06.2005 21:00 18.8 C 67 % 1019.4 hPa 0.0 l/m 1.5 km/h (1 Bft) SO 0.03 h 10 W/m 12.4 C 18.8 C
15.06.2005 22:00 16.2 C 79 % 1020.5 hPa 0.0 l/m 0.2 km/h (0 Bft) O-SO 0.00 h 0 W/m 12.6 C 16.2 C
15.06.2005 23:00 15.0 C 82 % 1020.8 hPa 0.0 l/m 3.0 km/h (1 Bft) O-SO 0.00 h 0 W/m 12.0 C 15.0 C
16.06.2005 00:00 14.1 C 86 % 1021.8 hPa 0.0 l/m 1.2 km/h (1 Bft) O-SO 0.00 h 0 W/m 11.7 C 14.1 C
16.06.2005 01:00 13.3 C 90 % 1021.9 hPa 0.0 l/m 0.1 km/h (0 Bft) O-SO 0.00 h 0 W/m 11.7 C 13.3 C
16.06.2005 02:00 13.0 C 94 % 1022.0 hPa 0.0 l/m 0.4 km/h (0 Bft) O-SO 0.00 h 0 W/m 12.0 C 13.0 C
16.06.2005 03:00 13.1 C 97 % 1021.9 hPa 0.0 l/m 0.1 km/h (0 Bft) O-SO 0.00 h 0 W/m 12.6 C 13.1 C
16.06.2005 04:00 13.4 C 98 % 1021.9 hPa 0.0 l/m 0.0 km/h (0 Bft) N 0.00 h 0 W/m 13.1 C 13.4 C
16.06.2005 05:00 13.4 C 97 % 1022.9 hPa 0.0 l/m 0.4 km/h (0 Bft) O-SO 0.00 h 7 W/m 13.0 C 13.4 C
16.06.2005 06:00 14.2 C 94 % 1022.8 hPa 0.0 l/m 0.0 km/h (0 Bft) N 0.00 h 18 W/m 13.2 C 14.2 C
16.06.2005 07:00 14.8 C 87 % 1023.8 hPa 0.0 l/m 0.1 km/h (0 Bft) N 0.07 h 110 W/m 12.7 C 14.8 C
16.06.2005 08:00 16.7 C 83 % 1023.5 hPa 0.0 l/m 1.1 km/h (0 Bft) O-SO 0.63 h 273 W/m 13.9 C 16.7 C
16.06.2005 09:00 18.5 C 68 % 1023.3 hPa 0.0 l/m 4.4 km/h (1 Bft) W-NW 1.00 h 412 W/m 12.5 C 18.5 C
16.06.2005 10:00 19.9 C 61 % 1023.2 hPa 0.0 l/m 8.3 km/h (2 Bft) W-NW 1.00 h 551 W/m 12.2 C 19.9 C
16.06.2005 11:00 20.9 C 58 % 1023.0 hPa 0.0 l/m 5.9 km/h (2 Bft) W-NW 1.00 h 753 W/m 12.5 C 20.9 C
16.06.2005 12:00 22.5 C 54 % 1022.8 hPa 0.0 l/m 3.5 km/h (1 Bft) W-NW 1.00 h 796 W/m 12.6 C 22.5 C
16.06.2005 13:00 24.0 C 48 % 1022.6 hPa 0.0 l/m 7.3 km/h (2 Bft) W-NW 1.00 h 826 W/m 12.4 C 24.0 C
16.06.2005 14:00 24.5 C 48 % 1022.5 hPa 0.0 l/m 12.7 km/h (3 Bft) W-NW 1.00 h 721 W/m 12.6 C 24.5 C
16.06.2005 15:00 24.9 C 44 % 1022.5 hPa 0.0 l/m 16.3 km/h (3 Bft) W-NW 1.00 h 690 W/m 11.9 C 24.9 C
16.06.2005 16:00 25.5 C 43 % 1022.4 hPa 0.0 l/m 13.9 km/h (3 Bft) W-NW 1.00 h 566 W/m 11.8 C 25.5 C
16.06.2005 17:00 25.6 C 44 % 1022.4 hPa 0.0 l/m 17.0 km/h (3 Bft) W-NW 1.00 h 495 W/m 12.3 C 25.6 C
16.06.2005 18:00 25.0 C 47 % 1022.5 hPa 0.0 l/m 19.0 km/h (3 Bft) W-NW 0.98 h 348 W/m 12.8 C 25.0 C
16.06.2005 19:00 24.7 C 48 % 1022.9 hPa 0.0 l/m 16.5 km/h (3 Bft) W-NW 1.00 h 252 W/m 13.0 C 24.7 C
16.06.2005 20:00 23.2 C 53 % 1023.9 hPa 0.0 l/m 14.5 km/h (3 Bft) W-NW 0.60 h 76 W/m 13.1 C 23.2 C
16.06.2005 21:00 21.2 C 61 % 1025.0 hPa 0.0 l/m 1.5 km/h (1 Bft) W-NW 0.27 h 17 W/m 13.3 C 21.2 C
16.06.2005 22:00 18.3 C 74 % 1025.4 hPa 0.0 l/m 2.0 km/h (1 Bft) SO 0.00 h 0 W/m 13.6 C 18.3 C
16.06.2005 23:00 16.9 C 82 % 1026.6 hPa 0.0 l/m 1.0 km/h (0 Bft) SO 0.00 h 0 W/m 13.7 C 16.9 C
17.06.2005 00:00 17.4 C 81 % 1026.6 hPa 0.0 l/m 0.9 km/h (0 Bft) O 0.00 h 0 W/m 14.2 C 17.4 C
17.06.2005 01:00 16.1 C 87 % 1026.7 hPa 0.0 l/m 2.9 km/h (1 Bft) O 0.00 h 0 W/m 14.0 C 16.1 C
17.06.2005 02:00 14.9 C 94 % 1026.9 hPa 0.0 l/m 1.9 km/h (1 Bft) O-SO 0.00 h 0 W/m 13.9 C 14.9 C
17.06.2005 03:00 14.1 C 97 % 1027.0 hPa 0.0 l/m 0.5 km/h (0 Bft) O-SO 0.00 h 0 W/m 13.7 C 14.1 C
17.06.2005 04:00 13.9 C 98 % 1027.0 hPa 0.0 l/m 0.3 km/h (0 Bft) O-SO 0.00 h 0 W/m 13.7 C 13.9 C
17.06.2005 05:00 13.7 C 99 % 1027.4 hPa 0.0 l/m 0.0 km/h (0 Bft) N 0.00 h 10 W/m 13.6 C 13.7 C
17.06.2005 06:00 14.6 C 95 % 1027.9 hPa 0.0 l/m 0.0 km/h (0 Bft) N 0.00 h 50 W/m 13.8 C 14.6 C
17.06.2005 07:00 15.8 C 91 % 1027.8 hPa 0.0 l/m 0.0 km/h (0 Bft) N 0.20 h 139 W/m 14.3 C 15.8 C
17.06.2005 08:00 17.1 C 82 % 1028.1 hPa 0.0 l/m 0.4 km/h (0 Bft) O-SO 0.53 h 268 W/m 14.0 C 17.1 C
17.06.2005 09:00 18.8 C 74 % 1028.4 hPa 0.0 l/m 0.6 km/h (0 Bft) W-NW 1.00 h 565 W/m 14.1 C 18.8 C
17.06.2005 10:00 21.2 C 66 % 1027.3 hPa 0.0 l/m 3.0 km/h (1 Bft) W-NW 1.00 h 674 W/m 14.6 C 21.2 C
17.06.2005 11:00 23.0 C 60 % 1026.9 hPa 0.0 l/m 2.9 km/h (1 Bft) O-SO 1.00 h 724 W/m 14.8 C 23.0 C
17.06.2005 12:00 24.3 C 57 % 1026.7 hPa 0.0 l/m 5.1 km/h (1 Bft) O-SO 1.00 h 756 W/m 15.2 C 24.3 C
17.06.2005 13:00 25.2 C 49 % 1026.6 hPa 0.0 l/m 3.2 km/h (1 Bft) W-NW 0.77 h 699 W/m 13.8 C 25.2 C
17.06.2005 14:00 26.0 C 46 % 1025.6 hPa 0.0 l/m 3.0 km/h (1 Bft) W-NW 0.97 h 785 W/m 13.5 C 26.0 C
17.06.2005 15:00 27.2 C 45 % 1025.3 hPa 0.0 l/m 1.9 km/h (1 Bft) O-SO 0.87 h 751 W/m 14.3 C 27.2 C
17.06.2005 16:00 27.5 C 45 % 1025.3 hPa 0.0 l/m 5.2 km/h (1 Bft) O-SO 0.83 h 609 W/m 14.6 C 27.5 C
17.06.2005 17:00 28.1 C 43 % 1025.2 hPa 0.0 l/m 3.5 km/h (1 Bft) O-SO 0.97 h 568 W/m 14.4 C 28.1 C
17.06.2005 18:00 26.3 C 48 % 1024.4 hPa 0.0 l/m 0.4 km/h (0 Bft) O-SO 0.17 h 195 W/m 14.2 C 26.3 C
17.06.2005 19:00 25.4 C 52 % 1024.5 hPa 0.0 l/m 0.0 km/h (0 Bft) N 0.00 h 121 W/m 14.8 C 25.4 C
17.06.2005 20:00 24.1 C 61 % 1024.7 hPa 0.0 l/m 0.2 km/h (0 Bft) O-SO 0.07 h 39 W/m 16.1 C 24.1 C
17.06.2005 21:00 22.5 C 67 % 1024.9 hPa 0.0 l/m 6.2 km/h (2 Bft) O-SO 0.27 h 17 W/m 16.0 C 22.5 C
17.06.2005 22:00 20.8 C 73 % 1026.1 hPa 0.0 l/m 1.9 km/h (1 Bft) O-SO 0.00 h 0 W/m 15.8 C 20.8 C
17.06.2005 23:00 19.6 C 79 % 1026.3 hPa 0.0 l/m 1.1 km/h (0 Bft) O-SO 0.00 h 0 W/m 15.8 C 19.6 C
18.06.2005 00:00 19.1 C 82 % 1026.3 hPa 0.0 l/m 0.0 km/h (0 Bft) N 0.00 h 0 W/m 15.9 C 19.1 C
18.06.2005 01:00 18.3 C 85 % 1025.8 hPa 0.0 l/m 0.6 km/h (0 Bft) O-SO 0.00 h 0 W/m 15.7 C 18.3 C
18.06.2005 02:00 17.5 C 88 % 1025.5 hPa 0.0 l/m 0.0 km/h (0 Bft) N 0.00 h 0 W/m 15.5 C 17.5 C
18.06.2005 03:00 17.6 C 88 % 1025.5 hPa 0.0 l/m 0.0 km/h (0 Bft) N 0.00 h 0 W/m 15.6 C 17.6 C
18.06.2005 04:00 16.9 C 91 % 1025.6 hPa 0.0 l/m 0.0 km/h (0 Bft) N 0.00 h 0 W/m 15.5 C 16.9 C
18.06.2005 05:00 16.4 C 96 % 1025.6 hPa 0.0 l/m 0.0 km/h (0 Bft) N 0.17 h 15 W/m 15.8 C 16.4 C
18.06.2005 06:00 17.9 C 86 % 1025.5 hPa 0.0 l/m 0.0 km/h (0 Bft) N 0.00 h 60 W/m 15.6 C 17.9 C
18.06.2005 07:00 19.4 C 79 % 1025.3 hPa 0.0 l/m 0.6 km/h (0 Bft) NO 0.67 h 184 W/m 15.7 C 19.4 C
18.06.2005 08:00 20.9 C 73 % 1025.1 hPa 0.0 l/m 0.2 km/h (0 Bft) SO 1.00 h 388 W/m 15.9 C 20.9 C
18.06.2005 09:00 22.3 C 68 % 1024.9 hPa 0.0 l/m 3.6 km/h (1 Bft) O-SO 0.87 h 463 W/m 16.1 C 22.3 C
18.06.2005 10:00 23.9 C 61 % 1024.0 hPa 0.0 l/m 14.0 km/h (3 Bft) O-SO 0.87 h 662 W/m 16.0 C 23.9 C
18.06.2005 11:00 24.6 C 59 % 1023.6 hPa 0.0 l/m 9.6 km/h (2 Bft) O-SO 0.73 h 650 W/m 16.1 C 24.6 C
18.06.2005 12:00 26.2 C 55 % 1023.3 hPa 0.0 l/m 9.4 km/h (2 Bft) O-SO 0.97 h 883 W/m 16.4 C 26.2 C
18.06.2005 13:00 27.0 C 52 % 1022.2 hPa 0.0 l/m 13.4 km/h (3 Bft) O-SO 0.92 h 808 W/m 16.2 C 27.0 C
18.06.2005 14:00 27.3 C 49 % 1021.5 hPa 0.0 l/m 5.2 km/h (1 Bft) O 0.80 h 730 W/m 15.7 C 27.3 C
18.06.2005 15:00 28.4 C 47 % 1020.9 hPa 0.0 l/m 12.0 km/h (2 Bft) O-SO 0.83 h 699 W/m 15.9 C 28.4 C
18.06.2005 16:00 28.3 C 48 % 1020.0 hPa 0.0 l/m 10.9 km/h (2 Bft) O-SO 0.55 h 539 W/m 16.0 C 28.3 C
18.06.2005 17:00 28.2 C 45 % 1020.0 hPa 0.0 l/m 9.4 km/h (2 Bft) O-SO 1.00 h 591 W/m 15.0 C 28.2 C
18.06.2005 18:00 27.6 C 47 % 1019.1 hPa 0.0 l/m 16.7 km/h (3 Bft) O-SO 1.00 h 423 W/m 15.2 C 27.6 C
18.06.2005 19:00 26.1 C 48 % 1019.8 hPa 0.0 l/m 15.8 km/h (3 Bft) O-SO 0.98 h 265 W/m 14.3 C 26.1 C
18.06.2005 20:00 24.6 C 49 % 1020.3 hPa 0.0 l/m 6.3 km/h (2 Bft) O 1.00 h 106 W/m 13.3 C 24.6 C
18.06.2005 21:00 22.3 C 58 % 1020.7 hPa 0.0 l/m 0.2 km/h (0 Bft) N 0.27 h 19 W/m 13.6 C 22.3 C
18.06.2005 22:00 19.9 C 69 % 1021.0 hPa 0.0 l/m 0.2 km/h (0 Bft) N 0.00 h 0 W/m 13.9 C 19.9 C
18.06.2005 23:00 18.5 C 76 % 1021.2 hPa 0.0 l/m 1.9 km/h (1 Bft) O 0.00 h 0 W/m 14.3 C 18.5 C
19.06.2005 00:00 17.4 C 84 % 1021.3 hPa 0.0 l/m 0.3 km/h (0 Bft) N 0.00 h 0 W/m 14.7 C 17.4 C
19.06.2005 01:00 16.8 C 85 % 1020.4 hPa 0.0 l/m 0.0 km/h (0 Bft) N 0.00 h 0 W/m 14.4 C 16.8 C
19.06.2005 02:00 16.2 C 89 % 1020.5 hPa 0.0 l/m 0.7 km/h (0 Bft) O-NO 0.00 h 0 W/m 14.4 C 16.2 C
19.06.2005 03:00 16.5 C 79 % 1020.5 hPa 0.0 l/m 0.3 km/h (0 Bft) O-SO 0.00 h 0 W/m 12.7 C 16.5 C
19.06.2005 04:00 14.8 C 80 % 1020.7 hPa 0.0 l/m 0.5 km/h (0 Bft) O-SO 0.00 h 0 W/m 11.4 C 14.8 C
19.06.2005 05:00 14.0 C 80 % 1020.8 hPa 0.0 l/m 0.3 km/h (0 Bft) O-SO 0.13 h 15 W/m 10.7 C 14.0 C
19.06.2005 06:00 14.1 C 78 % 1020.8 hPa 0.0 l/m 0.2 km/h (0 Bft) N 0.00 h 45 W/m 10.3 C 14.1 C
19.06.2005 07:00 16.3 C 65 % 1020.5 hPa 0.0 l/m 0.1 km/h (0 Bft) N 0.80 h 264 W/m 9.8 C 16.3 C
19.06.2005 08:00 18.7 C 53 % 1020.0 hPa 0.0 l/m 2.1 km/h (1 Bft) O-SO 1.00 h 445 W/m 8.9 C 18.7 C
19.06.2005 09:00 20.8 C 52 % 1019.1 hPa 0.0 l/m 6.3 km/h (2 Bft) O-SO 1.00 h 584 W/m 10.5 C 20.8 C
19.06.2005 10:00 23.2 C 51 % 1018.6 hPa 0.0 l/m 10.4 km/h (2 Bft) O 1.00 h 708 W/m 12.4 C 23.2 C
19.06.2005 11:00 25.2 C 47 % 1017.3 hPa 0.0 l/m 17.5 km/h (3 Bft) O-SO 1.00 h 802 W/m 13.2 C 25.2 C
19.06.2005 12:00 26.4 C 41 % 1017.1 hPa 0.0 l/m 15.4 km/h (3 Bft) O-SO 1.00 h 854 W/m 12.1 C 26.4 C
19.06.2005 13:00 27.5 C 35 % 1016.8 hPa 0.0 l/m 12.2 km/h (2 Bft) O 1.00 h 867 W/m 10.7 C 27.5 C
19.06.2005 14:00 28.8 C 28 % 1015.8 hPa 0.0 l/m 10.4 km/h (2 Bft) O 1.00 h 851 W/m 8.2 C 28.8 C
19.06.2005 15:00 29.1 C 20 % 1015.8 hPa 0.0 l/m 10.3 km/h (2 Bft) NO 1.00 h 800 W/m 3.8 C 29.1 C
19.06.2005 16:00 29.4 C 20 % 1015.7 hPa 0.0 l/m 6.4 km/h (2 Bft) NO 1.00 h 711 W/m 4.1 C 29.4 C
19.06.2005 17:00 29.6 C 20 % 1014.7 hPa 0.0 l/m 10.2 km/h (2 Bft) O-SO 1.00 h 591 W/m 4.4 C 29.6 C
19.06.2005 18:00 28.2 C 29 % 1014.8 hPa 0.0 l/m 15.5 km/h (3 Bft) O-SO 1.00 h 455 W/m 8.4 C 28.2 C
19.06.2005 19:00 27.1 C 30 % 1015.0 hPa 0.0 l/m 8.0 km/h (2 Bft) O-SO 1.00 h 309 W/m 8.2 C 27.1 C
19.06.2005 20:00 25.7 C 34 % 1015.1 hPa 0.0 l/m 2.5 km/h (1 Bft) O-SO 1.00 h 140 W/m 8.8 C 25.7 C
19.06.2005 21:00 23.4 C 41 % 1015.8 hPa 0.0 l/m 2.1 km/h (1 Bft) O-SO 0.27 h 32 W/m 9.4 C 23.4 C
19.06.2005 22:00 21.3 C 48 % 1016.7 hPa 0.0 l/m 0.7 km/h (0 Bft) O 0.00 h 0 W/m 9.9 C 21.3 C
19.06.2005 23:00 19.7 C 52 % 1016.9 hPa 0.0 l/m 2.2 km/h (1 Bft) O-SO 0.00 h 0 W/m 9.3 C 19.7 C
Min-Datum _ 13.06.05 19.06.05 13.06.05 - 13.06.05 - - - 19.06.05 13.06.05
_ Min-Zeit 03:51 14:10 17:47 - 00:04 - - - 14:10 03:51
Minimum _ 12.2 C 20 % 1005.8 hPa - 0.0 km/h (0 Bft) - - - 3.3 C 12.2 C
Max-Datum _ 19.06.05 13.06.05 17.06.05 13.06.05 14.06.05 - 13.06.05 14.06.05 18.06.05 19.06.05
_ Max-Zeit 16:58 02:27 08:34 01:45 16:46 - 08:32 13:04 12:38 16:58
Maximum _ 30.5 C 100 % 1028.7 hPa 2.9 l/m 37.7 km/h
W-NW (5 Bft)
- 0.05 h 1006 W/m 17.6 C 30.5 C
Durchschnitt _ 19.6 C 73 % 1018.4 hPa #16.9 l/m 3.9 km/h (1 Bft) O-SO #69:28 h 381 W/m 13.6 C 19.6 C

Durchschnitt Minimum Temp.18.9 C
Durchschnitt Maximum Temp.20.2 C
© Kaiko 2005